createdAt,value
2023-04-28T00:01:45.379Z,7.32
2023-04-28T00:04:12.739Z,7.13
2023-04-28T00:06:40.036Z,5.90
2023-04-28T00:09:10.971Z,8.25
2023-04-28T00:11:38.531Z,9.25
2023-04-28T00:14:06.030Z,7.20
2023-04-28T00:16:32.981Z,8.45
2023-04-28T00:21:26.538Z,8.18
2023-04-28T00:23:57.874Z,8.52
2023-04-28T00:26:24.609Z,8.07
2023-04-28T00:28:51.447Z,9.98
2023-04-28T00:31:18.185Z,8.23
2023-04-28T00:33:45.356Z,7.75
2023-04-28T00:36:12.244Z,6.75
2023-04-28T00:38:39.191Z,9.10
2023-04-28T00:43:50.392Z,8.15
2023-04-28T00:46:29.573Z,8.80
2023-04-28T00:48:57.573Z,7.82
2023-04-28T00:51:24.483Z,5.55
2023-04-28T00:56:18.828Z,5.50
2023-04-28T00:58:45.703Z,4.80
2023-04-28T01:03:41.331Z,7.65
2023-04-28T01:06:10.645Z,7.60
2023-04-28T01:08:38.957Z,7.68
2023-04-28T01:11:14.349Z,7.90
2023-04-28T01:14:00.222Z,7.68
2023-04-28T01:16:30.138Z,6.85
2023-04-28T01:19:01.350Z,6.47
2023-04-28T01:21:33.810Z,7.93
2023-04-28T01:24:08.796Z,7.97
2023-04-28T01:29:02.668Z,5.88
2023-04-28T01:33:58.424Z,5.90
2023-04-28T01:36:27.475Z,9.88
2023-04-28T01:38:55.102Z,8.32
2023-04-28T01:41:22.442Z,6.43
2023-04-28T01:43:49.730Z,5.13
2023-04-28T01:46:16.602Z,7.13
2023-04-28T01:51:10.147Z,8.07
2023-04-28T01:53:38.807Z,9.48
2023-04-28T01:56:05.930Z,7.60
2023-04-28T01:58:34.523Z,8.35
2023-04-28T02:01:01.302Z,6.70
2023-04-28T02:03:28.956Z,8.57
2023-04-28T02:05:56.197Z,8.30
2023-04-28T02:08:23.154Z,7.78
2023-04-28T02:10:52.195Z,6.50
2023-04-28T02:13:18.970Z,7.88
2023-04-28T02:15:46.084Z,7.28
2023-04-28T02:18:13.392Z,7.95
2023-04-28T02:20:40.836Z,6.53
2023-04-28T02:23:08.827Z,6.43
2023-04-28T02:25:35.730Z,10.82
2023-04-28T02:28:04.130Z,6.40
2023-04-28T02:30:34.685Z,9.90
2023-04-28T02:35:28.628Z,9.40
2023-04-28T02:37:55.494Z,8.70
2023-04-28T02:42:49.030Z,8.25
2023-04-28T02:45:15.959Z,6.72
2023-04-28T02:50:09.897Z,10.02
2023-04-28T02:52:36.853Z,8.48
2023-04-28T02:57:32.427Z,8.07
2023-04-28T02:59:59.496Z,7.32
2023-04-28T03:02:30.638Z,7.43
2023-04-28T03:04:57.615Z,9.98
2023-04-28T03:07:24.530Z,6.35
2023-04-28T03:09:51.374Z,8.32
2023-04-28T03:12:18.210Z,9.68
2023-04-28T03:14:46.603Z,8.02
2023-04-28T03:17:14.144Z,9.45
2023-04-28T03:19:41.337Z,12.50
2023-04-28T03:22:08.189Z,7.80
2023-04-28T03:27:03.785Z,8.50
2023-04-28T03:29:30.787Z,10.73
2023-04-28T03:31:57.666Z,8.38
2023-04-28T03:36:51.475Z,6.60
2023-04-28T03:39:24.848Z,6.82
2023-04-28T03:41:51.687Z,8.63
2023-04-28T03:44:37.421Z,9.07
2023-04-28T03:47:06.595Z,8.68
2023-04-28T03:49:33.600Z,11.38
2023-04-28T03:54:28.361Z,7.78
2023-04-28T03:56:55.517Z,7.75
2023-04-28T04:01:49.705Z,8.25
2023-04-28T04:06:44.641Z,8.77
2023-04-28T04:09:15.897Z,11.65
2023-04-28T04:11:43.580Z,15.00
2023-04-28T04:16:37.435Z,12.98
2023-04-28T04:19:05.406Z,12.25
2023-04-28T04:21:43.791Z,10.75
2023-04-28T04:26:37.949Z,9.87
2023-04-28T04:29:19.413Z,8.73
2023-04-28T04:31:46.511Z,9.80
2023-04-28T04:34:13.754Z,10.65
2023-04-28T04:36:41.614Z,8.95
2023-04-28T04:39:09.563Z,8.55
2023-04-28T04:44:26.163Z,10.73
2023-04-28T04:46:54.055Z,8.48
2023-04-28T04:49:21.252Z,8.82
2023-04-28T04:54:15.039Z,10.82
2023-04-28T04:56:43.325Z,10.02
2023-04-28T04:59:12.484Z,7.65
2023-04-28T05:01:51.620Z,9.98
2023-04-28T05:04:18.748Z,7.50
2023-04-28T05:06:45.916Z,10.10
2023-04-28T05:09:12.790Z,8.25
2023-04-28T05:11:40.009Z,13.50
2023-04-28T05:14:07.098Z,11.93
2023-04-28T05:16:35.298Z,9.77
2023-04-28T05:19:08.167Z,11.05
2023-04-28T05:21:35.756Z,12.10
2023-04-28T05:24:02.749Z,9.13
2023-04-28T05:26:30.420Z,12.63
2023-04-28T05:29:02.699Z,9.38
2023-04-28T05:33:57.492Z,11.02
2023-04-28T05:36:25.506Z,11.35
2023-04-28T05:38:52.559Z,9.98
2023-04-28T05:41:19.920Z,8.38
2023-04-28T05:46:29.225Z,8.00
2023-04-28T05:48:58.847Z,7.95
2023-04-28T05:51:27.172Z,10.20
2023-04-28T05:53:54.201Z,11.60
2023-04-28T05:56:21.376Z,8.35
2023-04-28T05:58:50.469Z,9.68
2023-04-28T06:01:17.789Z,11.98
2023-04-28T06:03:45.623Z,10.93
2023-04-28T06:06:13.554Z,10.48
2023-04-28T06:08:40.912Z,12.75
2023-04-28T06:11:07.744Z,11.23
2023-04-28T06:13:35.171Z,10.48
2023-04-28T06:16:03.894Z,10.98
2023-04-28T06:18:34.045Z,11.82
2023-04-28T06:21:02.910Z,12.05
2023-04-28T06:25:56.687Z,15.40
2023-04-28T06:28:23.554Z,14.27
2023-04-28T06:30:53.415Z,16.85
2023-04-28T06:33:20.252Z,13.63
2023-04-28T06:35:47.207Z,12.27
2023-04-28T06:38:15.540Z,12.32
2023-04-28T06:40:42.382Z,14.60
2023-04-28T06:43:09.416Z,11.88
2023-04-28T06:45:44.155Z,12.10
2023-04-28T06:48:11.247Z,15.15
2023-04-28T06:50:39.391Z,12.10
2023-04-28T06:53:07.758Z,13.00
2023-04-28T06:55:34.996Z,15.00
2023-04-28T06:58:01.854Z,12.02
2023-04-28T07:02:55.851Z,12.70
2023-04-28T07:05:22.972Z,13.60
2023-04-28T07:10:16.698Z,12.35
2023-04-28T07:15:10.849Z,16.23
2023-04-28T07:17:38.262Z,14.88
2023-04-28T07:20:06.878Z,14.57
2023-04-28T07:22:33.696Z,13.50
2023-04-28T07:25:02.633Z,12.80
2023-04-28T07:27:29.572Z,13.35
2023-04-28T07:32:24.217Z,16.08
2023-04-28T07:34:51.151Z,16.00
2023-04-28T07:39:45.329Z,11.67
2023-04-28T07:44:39.016Z,12.05
2023-04-28T07:49:33.009Z,13.65
2023-04-28T07:51:59.795Z,15.18
2023-04-28T07:56:53.431Z,11.70
2023-04-28T07:59:20.597Z,11.30
2023-04-28T08:01:47.377Z,11.75
2023-04-28T08:06:42.009Z,11.25
2023-04-28T08:11:35.984Z,13.85
2023-04-28T08:16:41.384Z,10.02
2023-04-28T08:19:08.711Z,13.65
2023-04-28T08:21:35.721Z,8.55
2023-04-28T08:24:02.493Z,15.02
2023-04-28T08:28:56.166Z,13.43
2023-04-28T08:33:51.264Z,13.73
2023-04-28T08:36:18.801Z,15.90
2023-04-28T08:38:46.022Z,13.45
2023-04-28T08:41:16.981Z,10.50
2023-04-28T08:43:44.818Z,12.77
2023-04-28T08:46:14.448Z,13.18
2023-04-28T08:48:45.108Z,12.57
2023-04-28T08:51:17.223Z,10.85
2023-04-28T08:54:14.985Z,12.88
2023-04-28T08:56:36.816Z,11.85
2023-04-28T08:59:04.907Z,13.25
2023-04-28T09:01:32.513Z,13.65
2023-04-28T09:04:04.039Z,12.23
2023-04-28T09:06:36.267Z,13.85
2023-04-28T09:09:22.879Z,14.57
2023-04-28T09:12:04.066Z,13.32
2023-04-28T09:14:35.495Z,15.15
2023-04-28T09:17:03.430Z,13.15
2023-04-28T09:19:36.287Z,13.30
2023-04-28T09:22:17.618Z,16.42
2023-04-28T09:24:53.276Z,18.27
2023-04-28T09:27:29.492Z,14.32
2023-04-28T09:29:56.781Z,15.65
2023-04-28T09:32:24.863Z,15.23
2023-04-28T09:34:54.667Z,14.18
2023-04-28T09:37:23.615Z,13.35
2023-04-28T09:39:52.522Z,14.23
2023-04-28T09:42:45.988Z,15.75
2023-04-28T09:45:14.546Z,13.95
2023-04-28T09:47:46.917Z,16.23
2023-04-28T09:50:19.053Z,15.55
2023-04-28T09:52:57.156Z,16.60
2023-04-28T09:55:24.977Z,18.65
2023-04-28T09:57:54.786Z,14.82
2023-04-28T10:00:23.594Z,17.30
2023-04-28T10:02:51.680Z,14.50
2023-04-28T10:05:21.897Z,13.65
2023-04-28T10:07:49.136Z,15.55
2023-04-28T10:10:16.991Z,17.80
2023-04-28T10:12:44.884Z,15.50
2023-04-28T10:15:13.442Z,16.95
2023-04-28T10:17:40.513Z,15.70
2023-04-28T10:20:09.048Z,13.75
2023-04-28T10:22:38.898Z,14.88
2023-04-28T10:25:14.914Z,14.63
2023-04-28T10:27:46.949Z,15.68
2023-04-28T10:30:27.351Z,15.65
2023-04-28T10:33:14.177Z,14.32
2023-04-28T10:35:46.564Z,15.23
2023-04-28T10:38:22.077Z,15.00
2023-04-28T10:40:50.807Z,17.45
2023-04-28T10:43:31.006Z,17.38
2023-04-28T10:46:00.995Z,15.65
2023-04-28T10:48:35.093Z,17.17
2023-04-28T10:51:09.513Z,13.25
2023-04-28T10:53:59.533Z,12.32
2023-04-28T10:56:27.781Z,12.25
2023-04-28T10:58:59.133Z,10.75
2023-04-28T11:01:34.885Z,15.13
2023-04-28T11:04:14.070Z,13.02
2023-04-28T11:06:47.745Z,11.88
2023-04-28T11:09:20.984Z,10.38
2023-04-28T11:12:19.147Z,10.50
2023-04-28T11:14:46.244Z,11.93
2023-04-28T11:17:13.961Z,12.05
2023-04-28T11:19:45.734Z,11.30
2023-04-28T11:22:20.584Z,12.77
2023-04-28T11:25:00.303Z,13.93
2023-04-28T11:27:29.026Z,12.93
2023-04-28T11:29:56.392Z,13.60
2023-04-28T11:32:28.616Z,12.40
2023-04-28T11:34:55.589Z,11.55
2023-04-28T11:37:23.093Z,14.55
2023-04-28T11:39:50.213Z,11.10
2023-04-28T11:42:17.390Z,11.93
2023-04-28T11:44:52.610Z,15.70
2023-04-28T11:47:30.625Z,14.15
2023-04-28T11:49:58.029Z,13.05
2023-04-28T11:52:26.001Z,17.25
2023-04-28T11:54:57.719Z,15.43
2023-04-28T11:57:25.356Z,15.68
2023-04-28T11:59:52.473Z,18.30
2023-04-28T12:02:28.390Z,17.13
2023-04-28T12:04:55.602Z,15.25
2023-04-28T12:07:22.461Z,16.05
2023-04-28T12:10:09.511Z,16.05
2023-04-28T12:12:45.808Z,13.65
2023-04-28T12:15:18.849Z,11.48
2023-04-28T12:17:47.315Z,11.02
2023-04-28T12:20:35.349Z,12.68
2023-04-28T12:23:03.062Z,11.05
2023-04-28T12:25:30.124Z,11.70
2023-04-28T12:28:08.142Z,10.70
2023-04-28T12:30:39.152Z,8.05
2023-04-28T12:33:06.177Z,9.05
2023-04-28T12:35:33.293Z,7.75
2023-04-28T12:38:00.377Z,6.70
2023-04-28T12:40:27.517Z,8.45
2023-04-28T12:42:54.760Z,7.65
2023-04-28T12:45:21.651Z,7.78
2023-04-28T12:47:49.825Z,9.35
2023-04-28T12:50:16.938Z,7.75
2023-04-28T12:52:43.829Z,5.00
2023-04-28T12:55:11.106Z,5.28
2023-04-28T12:57:39.652Z,5.13
2023-04-28T13:00:08.337Z,8.27
2023-04-28T13:02:35.553Z,8.23
2023-04-28T13:05:02.911Z,8.45
2023-04-28T13:07:30.467Z,9.23
2023-04-28T13:09:58.305Z,9.65
2023-04-28T13:12:28.272Z,9.65
2023-04-28T13:14:55.139Z,10.30
2023-04-28T13:17:22.691Z,10.15
2023-04-28T13:19:49.902Z,9.30
2023-04-28T13:22:16.782Z,9.98
2023-04-28T13:24:44.235Z,8.43
2023-04-28T13:27:11.518Z,9.38
2023-04-28T13:29:38.370Z,8.35
2023-04-28T13:32:06.267Z,8.05
2023-04-28T13:34:33.702Z,7.95
2023-04-28T13:37:01.361Z,8.70
2023-04-28T13:39:28.489Z,7.63
2023-04-28T13:41:55.614Z,8.43
2023-04-28T13:44:22.716Z,7.25
2023-04-28T13:46:49.889Z,6.45
2023-04-28T13:49:16.901Z,5.97
2023-04-28T13:51:45.590Z,6.32
2023-04-28T13:54:12.947Z,5.82
2023-04-28T13:56:40.083Z,5.55
2023-04-28T13:59:07.256Z,4.70
2023-04-28T14:01:34.122Z,5.72
2023-04-28T14:04:01.557Z,6.07
2023-04-28T14:06:28.901Z,4.82
2023-04-28T14:08:55.880Z,4.60
2023-04-28T14:11:23.512Z,4.07
2023-04-28T14:13:51.376Z,3.42
2023-04-28T14:16:19.508Z,3.80
2023-04-28T14:18:48.105Z,4.25
2023-04-28T14:21:16.103Z,4.50
2023-04-28T14:23:43.804Z,4.15
2023-04-28T14:26:11.609Z,3.45
2023-04-28T14:28:40.050Z,5.15
2023-04-28T14:31:09.183Z,5.88
2023-04-28T14:33:36.875Z,5.82
2023-04-28T14:36:05.107Z,7.18
2023-04-28T14:38:32.247Z,5.13
2023-04-28T14:40:59.090Z,5.20
2023-04-28T14:43:25.933Z,5.72
2023-04-28T14:45:53.509Z,5.80
2023-04-28T14:48:20.834Z,5.28
2023-04-28T14:50:47.946Z,4.63
2023-04-28T14:53:14.895Z,5.18
2023-04-28T14:55:42.251Z,4.60
2023-04-28T14:58:09.438Z,4.80
2023-04-28T15:00:39.315Z,3.97
2023-04-28T15:03:06.227Z,4.25
2023-04-28T15:05:33.423Z,3.67
2023-04-28T15:08:00.242Z,3.17
2023-04-28T15:10:32.740Z,3.40
2023-04-28T15:12:59.530Z,3.17
2023-04-28T15:15:27.005Z,3.72
2023-04-28T15:18:00.390Z,3.75
2023-04-28T15:20:30.533Z,4.00
2023-04-28T15:22:57.675Z,3.05
2023-04-28T15:25:24.866Z,2.95
2023-04-28T15:27:52.060Z,2.97
2023-04-28T15:30:19.316Z,2.35
2023-04-28T15:32:46.381Z,3.10
2023-04-28T15:35:13.299Z,2.30
2023-04-28T15:37:43.448Z,1.88
2023-04-28T15:40:12.619Z,2.22
2023-04-28T15:42:42.116Z,3.25
2023-04-28T15:45:11.131Z,3.67
2023-04-28T15:47:38.975Z,2.65
2023-04-28T15:50:07.329Z,2.85
2023-04-28T15:52:34.125Z,3.75
2023-04-28T15:55:01.221Z,3.35
2023-04-28T15:57:29.390Z,2.60
2023-04-28T15:59:56.208Z,3.13
2023-04-28T16:02:23.873Z,2.60
2023-04-28T16:04:51.415Z,2.63
2023-04-28T16:07:18.517Z,2.58
2023-04-28T16:09:45.390Z,2.05
2023-04-28T16:12:12.460Z,2.70
2023-04-28T16:14:39.228Z,2.75
2023-04-28T16:17:06.173Z,2.92
2023-04-28T16:19:33.537Z,2.17
2023-04-28T16:22:01.520Z,1.90
2023-04-28T16:24:28.742Z,2.45
2023-04-28T16:26:55.888Z,4.47
2023-04-28T16:29:23.606Z,2.90
2023-04-28T16:31:50.408Z,2.05
2023-04-28T16:34:19.395Z,2.63
2023-04-28T16:36:46.431Z,3.08
2023-04-28T16:39:13.344Z,2.30
2023-04-28T16:41:40.066Z,2.00
2023-04-28T16:44:08.056Z,2.17
2023-04-28T16:46:35.032Z,3.35
2023-04-28T16:49:03.986Z,2.08
2023-04-28T16:51:33.244Z,2.58
2023-04-28T16:54:00.103Z,2.03
2023-04-28T16:56:28.262Z,3.00
2023-04-28T16:58:55.573Z,4.40
2023-04-28T17:01:22.567Z,3.33
2023-04-28T17:03:50.941Z,2.95
2023-04-28T17:06:17.896Z,4.78
2023-04-28T17:11:16.555Z,3.08
2023-04-28T17:13:43.331Z,2.72
2023-04-28T17:18:38.403Z,2.75
2023-04-28T17:21:06.005Z,3.28
2023-04-28T17:23:32.934Z,2.20
2023-04-28T17:25:59.696Z,6.45
2023-04-28T17:30:55.742Z,3.05
2023-04-28T17:33:22.661Z,3.22
2023-04-28T17:35:49.860Z,3.00
2023-04-28T17:38:16.826Z,3.67
2023-04-28T17:40:48.435Z,6.95
2023-04-28T17:43:20.400Z,4.85
2023-04-28T17:45:47.404Z,4.60
2023-04-28T17:48:14.667Z,5.25
2023-04-28T17:50:41.865Z,4.07
2023-04-28T17:53:08.635Z,2.75
2023-04-28T17:55:35.975Z,2.75
2023-04-28T17:58:02.699Z,3.70
2023-04-28T18:02:56.494Z,4.65
2023-04-28T18:05:24.236Z,3.75
2023-04-28T18:07:51.008Z,3.67
2023-04-28T18:12:45.298Z,4.68
2023-04-28T18:15:12.178Z,2.50
2023-04-28T18:17:39.227Z,1.75
2023-04-28T18:20:06.887Z,2.88
2023-04-28T18:22:33.772Z,3.97
2023-04-28T18:25:00.636Z,2.95
2023-04-28T18:27:28.587Z,3.40
2023-04-28T18:29:55.894Z,2.20
2023-04-28T18:32:22.868Z,3.33
2023-04-28T18:34:49.919Z,3.88
2023-04-28T18:37:16.907Z,5.25
2023-04-28T18:42:10.520Z,4.10
2023-04-28T18:47:04.300Z,4.20
2023-04-28T18:49:32.275Z,3.50
2023-04-28T18:52:03.378Z,3.47
2023-04-28T18:54:31.081Z,4.13
2023-04-28T18:56:58.318Z,2.45
2023-04-28T18:59:26.312Z,3.55
2023-04-28T19:01:53.023Z,2.63
2023-04-28T19:04:21.014Z,5.10
2023-04-28T19:06:47.893Z,2.88
2023-04-28T19:11:41.302Z,2.67
2023-04-28T19:14:08.019Z,3.05
2023-04-28T19:16:34.832Z,5.07
2023-04-28T19:21:29.657Z,2.65
2023-04-28T19:23:56.749Z,2.20
2023-04-28T19:26:24.142Z,3.78
2023-04-28T19:28:50.994Z,1.80
2023-04-28T19:31:17.989Z,2.85
2023-04-28T19:33:44.719Z,4.43
2023-04-28T19:36:11.500Z,3.45
2023-04-28T19:38:40.222Z,3.58
2023-04-28T19:41:07.205Z,3.00
2023-04-28T19:43:33.948Z,2.15
2023-04-28T19:46:00.761Z,1.70
2023-04-28T19:50:54.518Z,2.47
2023-04-28T19:53:21.561Z,3.30
2023-04-28T19:55:48.286Z,3.03
2023-04-28T19:58:16.111Z,4.07
2023-04-28T20:00:43.120Z,4.35
2023-04-28T20:03:09.948Z,3.03
2023-04-28T20:05:39.831Z,3.83
2023-04-28T20:08:06.579Z,4.25
2023-04-28T20:13:00.282Z,5.70
2023-04-28T20:17:53.738Z,3.60
2023-04-28T20:22:48.756Z,5.25
2023-04-28T20:25:15.801Z,4.97
2023-04-28T20:27:45.327Z,5.50
2023-04-28T20:30:12.186Z,3.50
2023-04-28T20:35:06.169Z,3.95
2023-04-28T20:37:33.217Z,3.30
2023-04-28T20:39:59.925Z,3.95
2023-04-28T20:42:28.198Z,4.55
2023-04-28T20:44:54.985Z,3.88
2023-04-28T20:49:48.743Z,3.85
2023-04-28T20:52:15.706Z,3.20
2023-04-28T20:59:38.069Z,3.75
2023-04-28T21:02:04.912Z,5.43
2023-04-28T21:04:31.875Z,5.35
2023-04-28T21:09:25.587Z,5.45
2023-04-28T21:11:52.800Z,4.75
2023-04-28T21:14:20.187Z,4.53
2023-04-28T21:16:47.133Z,5.38
2023-04-28T21:19:13.979Z,6.20
2023-04-28T21:24:09.136Z,3.65
2023-04-28T21:26:36.826Z,5.03
2023-04-28T21:29:03.616Z,5.20
2023-04-28T21:33:57.845Z,5.23
2023-04-28T21:36:24.726Z,5.00
2023-04-28T21:41:18.795Z,4.25
2023-04-28T21:43:45.813Z,5.80
2023-04-28T21:46:13.114Z,5.22
2023-04-28T21:48:40.183Z,5.80
2023-04-28T21:53:33.802Z,7.50
2023-04-28T21:56:00.704Z,4.60
2023-04-28T22:00:55.019Z,5.60
2023-04-28T22:03:22.953Z,4.25
2023-04-28T22:05:50.395Z,5.38
2023-04-28T22:08:17.271Z,5.93
2023-04-28T22:13:12.986Z,5.45
2023-04-28T22:15:39.903Z,5.40
2023-04-28T22:18:08.221Z,5.68
2023-04-28T22:20:35.983Z,5.20
2023-04-28T22:23:02.808Z,4.30
2023-04-28T22:27:56.274Z,5.53
2023-04-28T22:32:53.240Z,4.15
2023-04-28T22:35:20.056Z,4.55
2023-04-28T22:37:46.916Z,5.82
2023-04-28T22:42:42.834Z,4.07
2023-04-28T22:45:10.907Z,5.60
2023-04-28T22:47:39.630Z,4.30
2023-04-28T22:50:10.478Z,4.63
2023-04-28T22:52:37.459Z,3.25
2023-04-28T22:55:04.873Z,4.47
2023-04-28T22:57:32.017Z,3.80
2023-04-28T22:59:59.174Z,3.78
2023-04-28T23:02:26.417Z,4.10
2023-04-28T23:04:53.733Z,5.20
2023-04-28T23:07:20.758Z,3.08
2023-04-28T23:09:47.443Z,3.60
2023-04-28T23:12:14.334Z,4.40
2023-04-28T23:17:07.889Z,3.80
2023-04-28T23:22:07.393Z,4.55
2023-04-28T23:24:36.729Z,4.80
2023-04-28T23:27:03.962Z,3.97
2023-04-28T23:29:30.628Z,3.22
2023-04-28T23:31:57.617Z,3.67
2023-04-28T23:34:25.898Z,3.63
2023-04-28T23:36:52.755Z,5.13
2023-04-28T23:39:19.582Z,3.22
2023-04-28T23:44:13.190Z,4.90
2023-04-28T23:49:06.970Z,3.63
2023-04-28T23:51:33.784Z,3.60
2023-04-28T23:56:28.379Z,3.30
